createdAt,value
2022-11-13T00:02:15.370Z,101410.63
2022-11-13T00:06:20.332Z,101408.75
2022-11-13T00:10:27.953Z,101401.25
2022-11-13T00:14:29.918Z,101394.16
2022-11-13T00:18:35.079Z,101410.56
2022-11-13T00:22:37.138Z,101397.69
2022-11-13T00:26:39.827Z,101402.31
2022-11-13T00:31:26.502Z,101399.16
2022-11-13T00:40:39.015Z,101401.16
2022-11-13T00:49:13.701Z,101393.00
2022-11-13T00:53:46.260Z,101391.81
2022-11-13T00:57:48.156Z,101383.72
2022-11-13T01:01:50.151Z,101392.19
2022-11-13T01:05:52.029Z,101397.75
2022-11-13T01:09:54.011Z,101406.00
2022-11-13T01:13:56.290Z,101386.53
2022-11-13T01:18:04.421Z,101398.69
2022-11-13T01:27:02.805Z,101366.66
2022-11-13T01:31:14.821Z,101350.41
2022-11-13T01:35:35.108Z,101366.09
2022-11-13T01:39:39.352Z,101357.22
2022-11-13T01:43:41.341Z,101361.50
2022-11-13T01:47:47.981Z,101347.94
2022-11-13T01:51:59.110Z,101367.50
2022-11-13T01:56:00.981Z,101346.53
2022-11-13T02:00:08.983Z,101342.34
2022-11-13T02:04:10.944Z,101333.28
2022-11-13T02:08:13.010Z,101339.50
2022-11-13T02:12:18.709Z,101329.72
2022-11-13T02:16:20.661Z,101332.00
2022-11-13T02:20:39.213Z,101328.38
2022-11-13T02:24:45.252Z,101350.03
2022-11-13T02:28:47.702Z,101335.78
2022-11-13T02:32:51.672Z,101335.69
2022-11-13T02:36:53.596Z,101318.66
2022-11-13T02:40:55.487Z,101315.34
2022-11-13T02:44:57.612Z,101317.56
2022-11-13T02:48:59.659Z,101328.03
2022-11-13T02:53:01.702Z,101325.06
2022-11-13T02:57:03.712Z,101305.97
2022-11-13T03:01:07.744Z,101290.94
2022-11-13T03:05:16.144Z,101282.47
2022-11-13T03:09:28.259Z,101287.50
2022-11-13T03:13:37.172Z,101280.88
2022-11-13T03:17:45.176Z,101275.94
2022-11-13T03:21:53.145Z,101273.28
2022-11-13T03:25:55.157Z,101278.97
2022-11-13T03:29:57.119Z,101275.28
2022-11-13T03:33:59.238Z,101282.72
2022-11-13T03:38:01.088Z,101287.75
2022-11-13T03:42:03.015Z,101269.09
2022-11-13T03:46:05.162Z,101266.16
2022-11-13T03:50:07.594Z,101254.50
2022-11-13T03:54:09.731Z,101276.53
2022-11-13T03:58:11.911Z,101263.00
2022-11-13T04:02:13.924Z,101267.47
2022-11-13T04:06:15.949Z,101258.50
2022-11-13T04:10:18.320Z,101261.53
2022-11-13T04:14:20.248Z,101248.41
2022-11-13T04:18:22.169Z,101261.00
2022-11-13T04:22:24.066Z,101236.19
2022-11-13T04:26:26.037Z,101242.13
2022-11-13T04:30:28.145Z,101228.88
2022-11-13T04:34:30.105Z,101230.69
2022-11-13T04:38:33.269Z,101223.63
2022-11-13T04:42:50.550Z,101235.38
2022-11-13T04:46:52.524Z,101232.63
2022-11-13T04:51:02.675Z,101224.19
2022-11-13T04:55:10.421Z,101241.31
2022-11-13T04:59:22.824Z,101222.28
2022-11-13T05:03:31.871Z,101217.53
2022-11-13T05:07:33.861Z,101208.31
2022-11-13T05:11:35.926Z,101208.16
2022-11-13T05:15:37.848Z,101216.28
2022-11-13T05:19:39.791Z,101203.47
2022-11-13T05:23:42.750Z,101216.00
2022-11-13T05:27:44.933Z,101200.09
2022-11-13T05:31:47.027Z,101188.13
2022-11-13T05:35:51.464Z,101185.03
2022-11-13T05:39:55.335Z,101197.22
2022-11-13T05:44:00.792Z,101176.56
2022-11-13T05:48:06.001Z,101173.44
2022-11-13T05:52:07.937Z,101178.25
2022-11-13T05:56:36.463Z,101181.13
2022-11-13T06:00:38.587Z,101193.63
2022-11-13T06:04:56.241Z,101188.97
2022-11-13T06:09:00.267Z,101191.88
2022-11-13T06:13:02.494Z,101196.47
2022-11-13T06:17:07.429Z,101192.25
2022-11-13T06:21:20.013Z,101190.38
2022-11-13T06:25:22.072Z,101195.16
2022-11-13T06:29:24.112Z,101185.16
2022-11-13T06:33:25.931Z,101188.66
2022-11-13T06:37:30.499Z,101197.25
2022-11-13T06:41:35.785Z,101186.16
2022-11-13T06:45:43.133Z,101178.53
2022-11-13T06:49:45.028Z,101185.16
2022-11-13T06:53:47.209Z,101174.94
2022-11-13T06:57:49.311Z,101188.91
2022-11-13T07:01:53.698Z,101169.34
2022-11-13T07:06:01.660Z,101176.00
2022-11-13T07:10:07.423Z,101179.66
2022-11-13T07:14:12.376Z,101175.84
2022-11-13T07:24:18.486Z,101156.69
2022-11-13T07:28:23.697Z,101157.81
2022-11-13T10:00:17.959Z,101091.69
2022-11-13T10:05:01.910Z,101069.59
2022-11-13T10:10:25.169Z,101077.41
2022-11-13T10:15:00.102Z,101074.16
2022-11-13T10:20:54.601Z,101074.72
2022-11-13T10:25:39.550Z,101050.47
2022-11-13T10:29:53.139Z,101057.44
2022-11-13T10:34:21.255Z,101052.41
2022-11-13T10:38:45.247Z,101049.41
2022-11-13T10:43:00.321Z,101041.59
2022-11-13T10:48:14.117Z,101040.22
2022-11-13T10:52:05.696Z,101033.66
2022-11-13T10:56:40.283Z,101018.66
2022-11-13T11:05:44.756Z,101013.25
2022-11-13T11:09:49.739Z,100996.84
2022-11-13T11:13:56.136Z,100994.22
2022-11-13T11:18:02.986Z,100990.94
2022-11-13T11:22:36.668Z,100981.28
2022-11-13T11:27:25.037Z,100978.13
2022-11-13T11:31:57.564Z,100973.66
2022-11-13T11:36:43.381Z,100985.47
2022-11-13T11:41:16.643Z,100983.00
2022-11-13T11:45:34.295Z,100973.63
2022-11-13T11:49:37.303Z,100970.78
2022-11-13T11:53:52.089Z,100966.31
2022-11-13T11:58:40.499Z,100968.16
2022-11-13T12:03:10.116Z,100969.97
2022-11-13T12:07:42.414Z,100960.16
2022-11-13T12:12:19.875Z,100943.47
2022-11-13T12:16:41.099Z,100934.09
2022-11-13T12:21:24.509Z,100934.91
2022-11-13T12:25:47.004Z,100939.22
2022-11-13T12:30:19.607Z,100923.34
2022-11-13T12:34:45.981Z,100912.75
2022-11-13T12:39:05.728Z,100909.38
2022-11-13T12:48:40.961Z,100902.44
2022-11-13T12:53:36.544Z,100898.38
2022-11-13T13:03:16.892Z,100893.56
2022-11-13T13:08:30.572Z,100884.69
2022-11-13T13:13:24.263Z,100879.53
2022-11-13T13:17:35.593Z,100881.03
2022-11-13T13:22:27.272Z,100881.41
2022-11-13T13:26:31.743Z,100854.03
2022-11-13T13:31:11.589Z,100870.91
2022-11-13T13:36:35.949Z,100843.59
2022-11-13T13:46:36.324Z,100845.03
2022-11-13T13:50:52.410Z,100827.47
2022-11-13T13:55:31.631Z,100825.59
2022-11-13T13:59:49.167Z,100849.97
2022-11-13T14:04:30.750Z,100846.63
2022-11-13T14:08:35.570Z,100854.00
2022-11-13T14:13:14.777Z,100846.06
2022-11-13T14:17:44.952Z,100847.88
2022-11-13T14:22:22.588Z,100825.59
2022-11-13T14:26:58.618Z,100840.25
2022-11-13T14:43:04.731Z,100831.84
2022-11-13T14:47:58.258Z,100840.84
2022-11-13T14:52:32.036Z,100819.38
2022-11-13T15:22:33.931Z,100830.03
2022-11-13T15:26:38.396Z,100813.91
2022-11-13T15:30:49.158Z,100825.59
2022-11-13T17:36:44.098Z,100783.19
2022-11-13T17:43:11.698Z,100789.84
2022-11-13T17:46:03.604Z,100789.31
2022-11-13T17:50:41.631Z,100787.97
2022-11-13T17:55:56.620Z,100791.38
2022-11-13T18:01:35.830Z,100771.22
2022-11-13T21:01:33.149Z,100693.03
2022-11-13T21:05:54.089Z,100688.47
2022-11-13T21:10:03.404Z,100677.84
2022-11-13T21:14:28.951Z,100673.03
2022-11-13T21:18:38.929Z,100664.06
2022-11-13T21:22:40.918Z,100658.59
2022-11-13T21:27:06.079Z,100650.03
2022-11-13T21:31:18.557Z,100641.72
2022-11-13T21:35:22.716Z,100630.47
2022-11-13T21:39:27.715Z,100632.94
2022-11-13T21:54:36.690Z,100642.00
2022-11-13T21:58:40.326Z,100644.63
2022-11-13T22:02:43.751Z,100649.94
2022-11-13T22:06:49.713Z,100640.38
2022-11-13T22:10:52.796Z,100648.66
2022-11-13T22:14:54.848Z,100655.09
2022-11-13T22:19:04.960Z,100657.03
2022-11-13T22:23:06.888Z,100642.41
2022-11-13T22:27:08.938Z,100645.00
2022-11-13T22:31:21.916Z,100640.69
2022-11-13T22:35:24.044Z,100645.59
2022-11-13T22:39:29.565Z,100646.69
2022-11-13T22:43:36.396Z,100648.78
2022-11-13T22:47:38.327Z,100650.91
2022-11-13T22:51:41.706Z,100657.78
2022-11-13T22:55:47.881Z,100635.25
2022-11-13T22:59:49.933Z,100632.13
2022-11-13T23:03:54.522Z,100620.88
2022-11-13T23:07:56.712Z,100623.81
2022-11-13T23:11:58.820Z,100624.56
2022-11-13T23:16:04.168Z,100615.50
2022-11-13T23:20:07.257Z,100613.06
2022-11-13T23:24:10.516Z,100614.06
2022-11-13T23:28:12.554Z,100600.38
2022-11-13T23:32:15.078Z,100610.75
2022-11-13T23:36:23.264Z,100609.25
2022-11-13T23:40:25.174Z,100608.00
2022-11-13T23:44:27.051Z,100589.97
2022-11-13T23:48:29.322Z,100593.78
2022-11-13T23:52:31.669Z,100603.38
2022-11-13T23:56:33.588Z,100592.50
